Mozart, Arkansas
Current Conditions -  °F | °C
As of 2:35 AM on Friday 31 Oct 2014 (Local Time) from KBVX Reporting Station
Clear Clear  
Wind Chill: 52°   Ceiling: Unl
Heat Index: 52°   Visibility: 10mi
Dew Point: 43°   Wind: 5mph
Humidity: 71%   Direction: 290°WNW
Pressure: 30.04"   Gusts: NA
Location:  35.7627°N, 92.308°W
Report Text: KBVX 310735Z AUTO 29004KT 10SM CLR 11/06 A3004 RMK AO1
Loading
Personal Weather Stations






























Interactive Weather Map New forecast layout! Learn more

10-Day Weather Forecast

Advertisements
Track Severe Weather on mobile